sensor_id;sensor_type;location;lat;lon;timestamp;noise_LAeq;noise_LA_min;noise_LA_max;noise_LA01;noise_LA95
74260;Laerm;62630;55.874;37.516;2023-02-18T00:01:41;48.72;43.18;58.68;;
74260;Laerm;62630;55.874;37.516;2023-02-18T00:04:29;52.60;43.27;63.98;;
74260;Laerm;62630;55.874;37.516;2023-02-18T00:06:54;53.42;43.16;65.95;;
74260;Laerm;62630;55.874;37.516;2023-02-18T00:09:20;52.51;42.94;68.15;;
74260;Laerm;62630;55.874;37.516;2023-02-18T00:11:46;50.45;42.82;62.89;;
74260;Laerm;62630;55.874;37.516;2023-02-18T00:14:13;60.96;43.49;77.69;;
74260;Laerm;62630;55.874;37.516;2023-02-18T00:16:39;53.15;42.42;68.83;;
74260;Laerm;62630;55.874;37.516;2023-02-18T00:19:09;53.39;42.05;69.51;;
74260;Laerm;62630;55.874;37.516;2023-02-18T00:21:35;53.11;41.86;66.13;;
74260;Laerm;62630;55.874;37.516;2023-02-18T00:24:02;58.70;43.70;75.11;;
74260;Laerm;62630;55.874;37.516;2023-02-18T00:26:28;52.79;42.59;66.84;;
74260;Laerm;62630;55.874;37.516;2023-02-18T00:31:38;55.08;43.10;66.99;;
74260;Laerm;62630;55.874;37.516;2023-02-18T00:34:05;56.27;41.52;70.65;;
74260;Laerm;62630;55.874;37.516;2023-02-18T00:36:31;47.75;41.72;57.62;;
74260;Laerm;62630;55.874;37.516;2023-02-18T00:39:03;48.29;41.82;60.58;;
74260;Laerm;62630;55.874;37.516;2023-02-18T00:41:49;57.75;42.65;73.59;;
74260;Laerm;62630;55.874;37.516;2023-02-18T00:44:14;61.72;43.26;84.74;;
74260;Laerm;62630;55.874;37.516;2023-02-18T00:46:40;49.66;44.68;67.10;;
74260;Laerm;62630;55.874;37.516;2023-02-18T00:49:06;51.42;44.38;65.84;;
74260;Laerm;62630;55.874;37.516;2023-02-18T00:51:32;51.81;43.93;63.26;;
74260;Laerm;62630;55.874;37.516;2023-02-18T00:53:58;52.49;43.66;62.47;;
74260;Laerm;62630;55.874;37.516;2023-02-18T00:56:23;50.54;44.38;64.78;;
74260;Laerm;62630;55.874;37.516;2023-02-18T00:58:49;52.98;43.54;69.01;;
74260;Laerm;62630;55.874;37.516;2023-02-18T01:01:16;46.59;42.99;50.59;;
74260;Laerm;62630;55.874;37.516;2023-02-18T01:04:20;48.80;43.32;62.81;;
74260;Laerm;62630;55.874;37.516;2023-02-18T01:06:45;52.33;44.65;62.73;;
74260;Laerm;62630;55.874;37.516;2023-02-18T01:09:11;52.83;44.58;64.95;;
74260;Laerm;62630;55.874;37.516;2023-02-18T01:11:36;53.74;43.90;69.47;;
74260;Laerm;62630;55.874;37.516;2023-02-18T01:14:39;54.46;43.48;65.56;;
74260;Laerm;62630;55.874;37.516;2023-02-18T01:17:04;58.03;43.15;75.86;;
74260;Laerm;62630;55.874;37.516;2023-02-18T01:22:30;49.63;44.52;61.86;;
74260;Laerm;62630;55.874;37.516;2023-02-18T01:24:59;55.77;44.48;68.06;;
74260;Laerm;62630;55.874;37.516;2023-02-18T01:27:25;70.04;44.40;85.38;;
74260;Laerm;62630;55.874;37.516;2023-02-18T01:29:51;51.67;44.15;62.59;;
74260;Laerm;62630;55.874;37.516;2023-02-18T01:32:17;56.20;44.77;69.25;;
74260;Laerm;62630;55.874;37.516;2023-02-18T01:34:42;47.05;43.04;52.27;;
74260;Laerm;62630;55.874;37.516;2023-02-18T01:37:08;60.52;44.75;75.76;;
74260;Laerm;62630;55.874;37.516;2023-02-18T01:39:33;50.44;43.64;69.54;;
74260;Laerm;62630;55.874;37.516;2023-02-18T01:41:59;55.88;43.37;73.90;;
74260;Laerm;62630;55.874;37.516;2023-02-18T01:44:26;54.71;42.60;68.32;;
74260;Laerm;62630;55.874;37.516;2023-02-18T01:46:52;48.79;42.80;61.39;;
74260;Laerm;62630;55.874;37.516;2023-02-18T01:49:23;57.86;44.54;75.79;;
74260;Laerm;62630;55.874;37.516;2023-02-18T01:54:41;49.52;42.03;62.96;;
74260;Laerm;62630;55.874;37.516;2023-02-18T01:59:41;55.89;43.62;67.78;;
74260;Laerm;62630;55.874;37.516;2023-02-18T02:02:12;54.62;43.38;66.41;;
74260;Laerm;62630;55.874;37.516;2023-02-18T02:04:39;65.37;44.02;84.56;;
74260;Laerm;62630;55.874;37.516;2023-02-18T02:07:04;56.35;42.49;69.91;;
74260;Laerm;62630;55.874;37.516;2023-02-18T02:09:31;56.19;51.57;65.01;;
74260;Laerm;62630;55.874;37.516;2023-02-18T02:14:54;48.54;41.17;60.99;;
74260;Laerm;62630;55.874;37.516;2023-02-18T02:23:26;45.96;42.29;49.81;;
74260;Laerm;62630;55.874;37.516;2023-02-18T02:45:28;58.11;46.37;70.11;;
74260;Laerm;62630;55.874;37.516;2023-02-18T02:51:05;56.70;45.09;70.75;;
74260;Laerm;62630;55.874;37.516;2023-02-18T02:53:34;58.09;44.53;75.19;;
74260;Laerm;62630;55.874;37.516;2023-02-18T02:56:00;52.48;44.01;61.73;;
74260;Laerm;62630;55.874;37.516;2023-02-18T03:07:37;53.57;44.43;63.95;;
74260;Laerm;62630;55.874;37.516;2023-02-18T03:18:34;55.33;43.96;68.48;;
74260;Laerm;62630;55.874;37.516;2023-02-18T03:21:08;55.90;45.06;71.81;;
74260;Laerm;62630;55.874;37.516;2023-02-18T03:23:49;64.53;45.45;84.13;;
74260;Laerm;62630;55.874;37.516;2023-02-18T03:29:02;59.17;46.98;72.14;;
74260;Laerm;62630;55.874;37.516;2023-02-18T03:31:31;53.57;45.38;67.48;;
74260;Laerm;62630;55.874;37.516;2023-02-18T03:34:03;58.46;48.20;68.64;;
74260;Laerm;62630;55.874;37.516;2023-02-18T03:36:31;61.24;46.45;75.46;;
74260;Laerm;62630;55.874;37.516;2023-02-18T03:39:04;56.12;45.68;70.64;;
74260;Laerm;62630;55.874;37.516;2023-02-18T03:41:31;54.52;44.31;66.47;;
74260;Laerm;62630;55.874;37.516;2023-02-18T03:44:00;56.55;46.79;67.28;;
74260;Laerm;62630;55.874;37.516;2023-02-18T03:49:29;60.58;46.29;81.50;;
74260;Laerm;62630;55.874;37.516;2023-02-18T03:51:54;64.85;46.75;78.46;;
74260;Laerm;62630;55.874;37.516;2023-02-18T03:57:22;58.96;46.74;73.61;;
74260;Laerm;62630;55.874;37.516;2023-02-18T03:59:48;57.38;44.88;70.36;;
74260;Laerm;62630;55.874;37.516;2023-02-18T04:02:14;59.26;47.90;76.04;;
74260;Laerm;62630;55.874;37.516;2023-02-18T04:04:39;62.34;49.12;80.13;;
74260;Laerm;62630;55.874;37.516;2023-02-18T04:07:05;59.61;48.57;71.14;;
74260;Laerm;62630;55.874;37.516;2023-02-18T04:09:30;59.02;48.23;76.55;;
74260;Laerm;62630;55.874;37.516;2023-02-18T04:11:56;57.52;47.48;68.43;;
74260;Laerm;62630;55.874;37.516;2023-02-18T04:14:21;58.81;48.39;66.65;;
74260;Laerm;62630;55.874;37.516;2023-02-18T04:16:47;59.96;47.43;73.54;;
74260;Laerm;62630;55.874;37.516;2023-02-18T04:19:12;54.88;46.02;67.18;;
74260;Laerm;62630;55.874;37.516;2023-02-18T04:21:38;59.83;48.85;71.07;;
74260;Laerm;62630;55.874;37.516;2023-02-18T04:24:22;60.54;49.10;77.76;;
74260;Laerm;62630;55.874;37.516;2023-02-18T04:27:06;61.71;52.00;71.71;;
74260;Laerm;62630;55.874;37.516;2023-02-18T04:29:32;60.51;48.32;71.63;;
74260;Laerm;62630;55.874;37.516;2023-02-18T04:31:57;58.67;49.51;68.74;;
74260;Laerm;62630;55.874;37.516;2023-02-18T04:34:23;68.03;48.92;83.12;;
74260;Laerm;62630;55.874;37.516;2023-02-18T04:36:49;59.38;48.85;70.92;;
74260;Laerm;62630;55.874;37.516;2023-02-18T04:39:14;57.64;47.81;71.01;;
74260;Laerm;62630;55.874;37.516;2023-02-18T04:41:40;57.34;48.50;69.30;;
74260;Laerm;62630;55.874;37.516;2023-02-18T04:44:05;63.15;51.17;82.99;;
74260;Laerm;62630;55.874;37.516;2023-02-18T04:46:34;58.94;48.89;68.69;;
74260;Laerm;62630;55.874;37.516;2023-02-18T04:49:00;58.13;48.49;73.30;;
74260;Laerm;62630;55.874;37.516;2023-02-18T04:51:44;56.36;48.02;68.85;;
74260;Laerm;62630;55.874;37.516;2023-02-18T04:54:28;59.24;50.72;77.88;;
74260;Laerm;62630;55.874;37.516;2023-02-18T04:56:54;57.87;48.93;69.66;;
74260;Laerm;62630;55.874;37.516;2023-02-18T04:59:19;55.82;48.86;69.63;;
74260;Laerm;62630;55.874;37.516;2023-02-18T05:02:03;62.45;48.90;76.05;;
74260;Laerm;62630;55.874;37.516;2023-02-18T05:04:29;61.03;50.15;75.12;;
74260;Laerm;62630;55.874;37.516;2023-02-18T05:06:55;62.85;51.81;74.14;;
74260;Laerm;62630;55.874;37.516;2023-02-18T05:09:21;58.30;50.86;68.21;;
74260;Laerm;62630;55.874;37.516;2023-02-18T05:11:47;64.36;50.63;78.64;;
74260;Laerm;62630;55.874;37.516;2023-02-18T05:14:13;60.70;48.51;72.36;;
74260;Laerm;62630;55.874;37.516;2023-02-18T05:19:23;61.39;48.56;71.65;;
74260;Laerm;62630;55.874;37.516;2023-02-18T05:21:48;68.80;53.22;79.00;;
74260;Laerm;62630;55.874;37.516;2023-02-18T05:24:15;64.56;49.78;78.79;;
74260;Laerm;62630;55.874;37.516;2023-02-18T05:26:40;62.64;48.36;77.53;;
74260;Laerm;62630;55.874;37.516;2023-02-18T05:31:50;60.48;49.04;74.17;;
74260;Laerm;62630;55.874;37.516;2023-02-18T05:34:16;60.23;48.18;72.63;;
74260;Laerm;62630;55.874;37.516;2023-02-18T05:36:41;70.52;51.40;93.90;;
74260;Laerm;62630;55.874;37.516;2023-02-18T05:39:07;63.03;53.57;80.57;;
74260;Laerm;62630;55.874;37.516;2023-02-18T05:41:32;67.22;52.80;85.13;;
74260;Laerm;62630;55.874;37.516;2023-02-18T05:43:58;60.90;50.60;68.47;;
74260;Laerm;62630;55.874;37.516;2023-02-18T05:47:02;66.21;51.54;83.60;;
74260;Laerm;62630;55.874;37.516;2023-02-18T05:49:29;61.52;51.90;71.31;;
74260;Laerm;62630;55.874;37.516;2023-02-18T05:51:55;61.32;53.14;72.65;;
74260;Laerm;62630;55.874;37.516;2023-02-18T05:54:40;59.21;51.73;72.81;;
74260;Laerm;62630;55.874;37.516;2023-02-18T05:57:24;61.90;54.42;69.70;;
74260;Laerm;62630;55.874;37.516;2023-02-18T05:59:49;67.53;54.03;82.05;;
74260;Laerm;62630;55.874;37.516;2023-02-18T06:02:18;63.98;53.62;83.29;;
74260;Laerm;62630;55.874;37.516;2023-02-18T06:04:43;63.96;54.32;78.41;;
74260;Laerm;62630;55.874;37.516;2023-02-18T06:07:09;61.23;48.93;72.70;;
74260;Laerm;62630;55.874;37.516;2023-02-18T06:09:34;61.10;49.97;73.67;;
74260;Laerm;62630;55.874;37.516;2023-02-18T06:12:00;62.30;49.63;71.49;;
74260;Laerm;62630;55.874;37.516;2023-02-18T06:14:25;59.50;49.40;67.68;;
74260;Laerm;62630;55.874;37.516;2023-02-18T06:17:11;60.48;50.29;72.17;;
74260;Laerm;62630;55.874;37.516;2023-02-18T06:19:37;66.16;50.29;91.49;;
74260;Laerm;62630;55.874;37.516;2023-02-18T06:22:03;65.44;50.88;79.54;;
74260;Laerm;62630;55.874;37.516;2023-02-18T06:27:13;65.58;51.44;80.70;;
74260;Laerm;62630;55.874;37.516;2023-02-18T06:29:39;59.67;52.01;69.65;;
74260;Laerm;62630;55.874;37.516;2023-02-18T06:32:05;66.07;53.68;85.06;;
74260;Laerm;62630;55.874;37.516;2023-02-18T06:34:30;66.65;54.58;77.41;;
74260;Laerm;62630;55.874;37.516;2023-02-18T06:36:56;61.03;52.29;72.04;;
74260;Laerm;62630;55.874;37.516;2023-02-18T06:39:22;61.97;52.90;70.54;;
74260;Laerm;62630;55.874;37.516;2023-02-18T06:41:47;62.34;54.24;69.67;;
74260;Laerm;62630;55.874;37.516;2023-02-18T06:44:13;63.48;52.22;72.93;;
74260;Laerm;62630;55.874;37.516;2023-02-18T06:46:41;65.62;53.79;82.31;;
74260;Laerm;62630;55.874;37.516;2023-02-18T06:49:06;63.01;53.09;74.19;;
74260;Laerm;62630;55.874;37.516;2023-02-18T06:51:32;61.68;53.90;69.60;;
74260;Laerm;62630;55.874;37.516;2023-02-18T06:53:57;68.20;54.35;81.70;;
74260;Laerm;62630;55.874;37.516;2023-02-18T06:56:42;68.81;54.06;84.90;;
74260;Laerm;62630;55.874;37.516;2023-02-18T06:59:07;68.05;52.31;81.47;;
74260;Laerm;62630;55.874;37.516;2023-02-18T07:01:33;64.26;54.39;77.88;;
74260;Laerm;62630;55.874;37.516;2023-02-18T07:03:58;64.13;53.52;72.63;;
74260;Laerm;62630;55.874;37.516;2023-02-18T07:06:24;64.14;52.84;73.98;;
74260;Laerm;62630;55.874;37.516;2023-02-18T07:08:49;63.15;49.98;75.75;;
74260;Laerm;62630;55.874;37.516;2023-02-18T07:11:15;66.43;50.85;79.02;;
74260;Laerm;62630;55.874;37.516;2023-02-18T07:13:41;61.84;53.89;76.62;;
74260;Laerm;62630;55.874;37.516;2023-02-18T07:16:25;64.86;51.73;80.52;;
74260;Laerm;62630;55.874;37.516;2023-02-18T07:18:51;63.54;51.10;82.39;;
74260;Laerm;62630;55.874;37.516;2023-02-18T07:21:16;62.80;52.24;74.76;;
74260;Laerm;62630;55.874;37.516;2023-02-18T07:24:00;63.87;55.15;79.26;;
74260;Laerm;62630;55.874;37.516;2023-02-18T07:26:45;61.18;51.29;72.52;;
74260;Laerm;62630;55.874;37.516;2023-02-18T07:29:10;61.88;53.58;76.73;;
74260;Laerm;62630;55.874;37.516;2023-02-18T07:31:55;61.20;52.86;71.00;;
74260;Laerm;62630;55.874;37.516;2023-02-18T07:34:21;63.79;52.37;76.77;;
74260;Laerm;62630;55.874;37.516;2023-02-18T07:36:47;62.64;53.04;71.65;;
74260;Laerm;62630;55.874;37.516;2023-02-18T07:39:12;67.14;54.29;78.65;;
74260;Laerm;62630;55.874;37.516;2023-02-18T07:41:38;63.24;52.04;73.46;;
74260;Laerm;62630;55.874;37.516;2023-02-18T07:44:05;64.52;51.12;85.61;;
74260;Laerm;62630;55.874;37.516;2023-02-18T07:49:14;65.87;54.22;80.41;;
74260;Laerm;62630;55.874;37.516;2023-02-18T07:51:40;61.25;51.11;71.42;;
74260;Laerm;62630;55.874;37.516;2023-02-18T07:54:24;62.28;49.86;80.50;;
74260;Laerm;62630;55.874;37.516;2023-02-18T07:56:50;63.32;53.74;75.26;;
74260;Laerm;62630;55.874;37.516;2023-02-18T07:59:34;64.39;51.90;76.46;;
74260;Laerm;62630;55.874;37.516;2023-02-18T08:02:00;62.63;50.41;76.25;;
74260;Laerm;62630;55.874;37.516;2023-02-18T08:04:25;63.39;51.48;75.76;;
74260;Laerm;62630;55.874;37.516;2023-02-18T08:06:52;63.36;53.91;76.57;;
74260;Laerm;62630;55.874;37.516;2023-02-18T08:09:20;62.78;52.08;71.81;;
74260;Laerm;62630;55.874;37.516;2023-02-18T08:11:46;62.17;51.81;71.11;;
74260;Laerm;62630;55.874;37.516;2023-02-18T08:14:12;64.02;54.48;77.29;;
74260;Laerm;62630;55.874;37.516;2023-02-18T08:16:37;63.19;53.92;72.58;;
74260;Laerm;62630;55.874;37.516;2023-02-18T08:19:03;63.10;53.36;72.12;;
74260;Laerm;62630;55.874;37.516;2023-02-18T08:21:47;64.61;51.86;78.83;;
74260;Laerm;62630;55.874;37.516;2023-02-18T08:24:31;63.89;54.34;72.33;;
74260;Laerm;62630;55.874;37.516;2023-02-18T08:26:56;70.97;57.30;92.36;;
74260;Laerm;62630;55.874;37.516;2023-02-18T08:29:40;68.01;55.87;88.37;;
74260;Laerm;62630;55.874;37.516;2023-02-18T08:32:06;69.39;57.05;85.07;;
74260;Laerm;62630;55.874;37.516;2023-02-18T08:34:31;62.56;55.54;68.08;;
74260;Laerm;62630;55.874;37.516;2023-02-18T08:36:57;64.82;56.65;72.74;;
74260;Laerm;62630;55.874;37.516;2023-02-18T08:39:23;65.31;56.98;73.25;;
74260;Laerm;62630;55.874;37.516;2023-02-18T08:41:48;64.48;57.19;70.65;;
74260;Laerm;62630;55.874;37.516;2023-02-18T08:44:14;62.72;53.07;69.78;;
74260;Laerm;62630;55.874;37.516;2023-02-18T08:46:39;66.40;55.25;82.92;;
74260;Laerm;62630;55.874;37.516;2023-02-18T08:49:05;65.85;56.49;76.81;;
74260;Laerm;62630;55.874;37.516;2023-02-18T08:54:16;65.71;51.69;79.82;;
74260;Laerm;62630;55.874;37.516;2023-02-18T08:56:41;63.29;54.99;72.28;;
74260;Laerm;62630;55.874;37.516;2023-02-18T09:01:42;66.35;53.46;92.02;;
74260;Laerm;62630;55.874;37.516;2023-02-18T09:04:07;69.23;52.11;85.26;;
74260;Laerm;62630;55.874;37.516;2023-02-18T09:06:36;64.73;53.57;73.42;;
74260;Laerm;62630;55.874;37.516;2023-02-18T09:09:02;65.12;53.63;84.61;;
74260;Laerm;62630;55.874;37.516;2023-02-18T09:11:28;62.32;54.57;70.24;;
74260;Laerm;62630;55.874;37.516;2023-02-18T09:13:53;68.05;56.34;78.82;;
74260;Laerm;62630;55.874;37.516;2023-02-18T09:16:19;63.06;54.09;70.93;;
74260;Laerm;62630;55.874;37.516;2023-02-18T09:19:03;64.27;53.60;74.26;;
74260;Laerm;62630;55.874;37.516;2023-02-18T09:21:29;68.18;57.94;90.55;;
74260;Laerm;62630;55.874;37.516;2023-02-18T09:24:13;66.01;57.17;77.71;;
74260;Laerm;62630;55.874;37.516;2023-02-18T09:26:57;62.50;52.40;72.87;;
74260;Laerm;62630;55.874;37.516;2023-02-18T09:29:22;64.73;53.74;72.38;;
74260;Laerm;62630;55.874;37.516;2023-02-18T09:32:07;63.27;55.32;73.46;;
74260;Laerm;62630;55.874;37.516;2023-02-18T09:34:34;62.63;53.65;72.26;;
74260;Laerm;62630;55.874;37.516;2023-02-18T09:36:59;64.56;55.61;76.26;;
74260;Laerm;62630;55.874;37.516;2023-02-18T09:39:25;66.01;52.31;79.39;;
74260;Laerm;62630;55.874;37.516;2023-02-18T09:41:57;62.58;53.67;69.29;;
74260;Laerm;62630;55.874;37.516;2023-02-18T09:45:10;66.59;56.40;81.01;;
74260;Laerm;62630;55.874;37.516;2023-02-18T09:47:40;64.17;53.83;75.02;;
74260;Laerm;62630;55.874;37.516;2023-02-18T09:50:23;68.14;53.99;80.20;;
74260;Laerm;62630;55.874;37.516;2023-02-18T09:52:48;63.66;53.50;73.72;;
74260;Laerm;62630;55.874;37.516;2023-02-18T09:55:18;65.24;53.84;75.61;;
74260;Laerm;62630;55.874;37.516;2023-02-18T09:58:07;69.64;55.95;87.80;;
74260;Laerm;62630;55.874;37.516;2023-02-18T10:00:39;63.88;54.12;72.70;;
74260;Laerm;62630;55.874;37.516;2023-02-18T10:03:24;64.19;52.93;75.05;;
74260;Laerm;62630;55.874;37.516;2023-02-18T10:05:59;65.24;56.59;71.74;;
74260;Laerm;62630;55.874;37.516;2023-02-18T10:08:33;63.69;54.10;72.52;;
74260;Laerm;62630;55.874;37.516;2023-02-18T10:10:59;63.40;54.71;79.45;;
74260;Laerm;62630;55.874;37.516;2023-02-18T10:13:29;64.20;55.05;75.15;;
74260;Laerm;62630;55.874;37.516;2023-02-18T10:15:55;63.18;55.36;76.71;;
74260;Laerm;62630;55.874;37.516;2023-02-18T10:20:47;64.04;55.34;72.55;;
74260;Laerm;62630;55.874;37.516;2023-02-18T10:23:14;64.16;50.97;71.64;;
74260;Laerm;62630;55.874;37.516;2023-02-18T10:25:59;64.61;52.84;78.28;;
74260;Laerm;62630;55.874;37.516;2023-02-18T10:28:27;64.83;55.84;74.53;;
74260;Laerm;62630;55.874;37.516;2023-02-18T10:31:02;69.77;54.41;92.93;;
74260;Laerm;62630;55.874;37.516;2023-02-18T10:36:27;64.23;54.54;71.44;;
74260;Laerm;62630;55.874;37.516;2023-02-18T10:44:16;62.53;53.90;72.89;;
74260;Laerm;62630;55.874;37.516;2023-02-18T10:50:08;64.91;54.65;72.83;;
74260;Laerm;62630;55.874;37.516;2023-02-18T10:52:54;65.72;57.97;72.79;;
74260;Laerm;62630;55.874;37.516;2023-02-18T10:55:33;64.75;55.17;72.38;;
74260;Laerm;62630;55.874;37.516;2023-02-18T10:57:59;63.11;53.96;70.58;;
74260;Laerm;62630;55.874;37.516;2023-02-18T11:00:25;63.46;54.26;74.63;;
74260;Laerm;62630;55.874;37.516;2023-02-18T11:03:21;68.23;57.85;80.20;;
74260;Laerm;62630;55.874;37.516;2023-02-18T11:08:46;64.02;55.59;72.73;;
74260;Laerm;62630;55.874;37.516;2023-02-18T11:11:27;66.30;54.93;77.47;;
74260;Laerm;62630;55.874;37.516;2023-02-18T11:13:58;68.90;56.35;85.20;;
74260;Laerm;62630;55.874;37.516;2023-02-18T11:19:01;65.75;54.76;76.40;;
74260;Laerm;62630;55.874;37.516;2023-02-18T11:24:29;64.38;55.22;71.71;;
74260;Laerm;62630;55.874;37.516;2023-02-18T11:26:55;64.85;53.54;84.98;;
74260;Laerm;62630;55.874;37.516;2023-02-18T11:29:39;63.92;53.07;76.74;;
74260;Laerm;62630;55.874;37.516;2023-02-18T11:32:10;65.22;54.54;73.27;;
74260;Laerm;62630;55.874;37.516;2023-02-18T11:34:41;67.86;54.25;78.64;;
74260;Laerm;62630;55.874;37.516;2023-02-18T11:37:11;63.79;55.27;83.14;;
74260;Laerm;62630;55.874;37.516;2023-02-18T11:39:42;67.00;55.28;87.89;;
74260;Laerm;62630;55.874;37.516;2023-02-18T11:42:12;68.20;54.51;87.38;;
74260;Laerm;62630;55.874;37.516;2023-02-18T11:44:42;64.88;55.56;73.28;;
74260;Laerm;62630;55.874;37.516;2023-02-18T11:49:38;64.10;53.75;76.22;;
74260;Laerm;62630;55.874;37.516;2023-02-18T11:55:07;67.65;52.75;87.19;;
74260;Laerm;62630;55.874;37.516;2023-02-18T11:57:41;63.28;52.79;73.37;;
74260;Laerm;62630;55.874;37.516;2023-02-18T12:00:22;63.59;53.34;74.36;;
74260;Laerm;62630;55.874;37.516;2023-02-18T12:02:50;63.39;54.28;76.77;;
74260;Laerm;62630;55.874;37.516;2023-02-18T12:07:47;63.87;53.76;78.12;;
74260;Laerm;62630;55.874;37.516;2023-02-18T12:13:04;61.33;53.97;70.79;;
74260;Laerm;62630;55.874;37.516;2023-02-18T12:23:39;65.29;54.56;74.40;;
74260;Laerm;62630;55.874;37.516;2023-02-18T12:26:24;66.06;54.18;74.06;;
74260;Laerm;62630;55.874;37.516;2023-02-18T12:29:03;70.00;53.57;87.36;;
74260;Laerm;62630;55.874;37.516;2023-02-18T12:46:16;64.69;56.65;72.67;;
74260;Laerm;62630;55.874;37.516;2023-02-18T12:56:46;64.13;55.13;70.66;;
74260;Laerm;62630;55.874;37.516;2023-02-18T13:02:33;66.33;54.13;82.52;;
74260;Laerm;62630;55.874;37.516;2023-02-18T13:05:13;64.62;54.95;74.25;;
74260;Laerm;62630;55.874;37.516;2023-02-18T13:13:16;63.04;53.91;77.00;;
74260;Laerm;62630;55.874;37.516;2023-02-18T13:15:49;68.07;54.25;83.53;;
74260;Laerm;62630;55.874;37.516;2023-02-18T13:21:04;64.78;55.03;78.77;;
74260;Laerm;62630;55.874;37.516;2023-02-18T13:23:39;62.64;54.68;78.26;;
74260;Laerm;62630;55.874;37.516;2023-02-18T13:26:10;62.96;55.45;76.58;;
74260;Laerm;62630;55.874;37.516;2023-02-18T13:40:16;64.96;54.70;71.98;;
74260;Laerm;62630;55.874;37.516;2023-02-18T13:42:43;67.78;55.11;75.79;;
74260;Laerm;62630;55.874;37.516;2023-02-18T13:47:52;63.94;53.66;75.09;;
74260;Laerm;62630;55.874;37.516;2023-02-18T13:50:31;67.56;54.70;80.70;;
74260;Laerm;62630;55.874;37.516;2023-02-18T13:52:59;64.75;55.27;73.69;;
74260;Laerm;62630;55.874;37.516;2023-02-18T13:56:03;63.10;52.09;80.44;;
74260;Laerm;62630;55.874;37.516;2023-02-18T13:58:36;71.50;54.02;87.84;;
74260;Laerm;62630;55.874;37.516;2023-02-18T14:01:20;63.72;53.73;76.63;;
74260;Laerm;62630;55.874;37.516;2023-02-18T14:06:14;64.17;53.66;73.04;;
74260;Laerm;62630;55.874;37.516;2023-02-18T14:08:41;62.14;53.11;76.13;;
74260;Laerm;62630;55.874;37.516;2023-02-18T14:13:52;65.68;55.60;79.59;;
74260;Laerm;62630;55.874;37.516;2023-02-18T14:16:18;67.50;52.60;79.75;;
74260;Laerm;62630;55.874;37.516;2023-02-18T14:26:21;65.13;54.40;74.62;;
74260;Laerm;62630;55.874;37.516;2023-02-18T14:28:51;65.68;54.18;77.86;;
74260;Laerm;62630;55.874;37.516;2023-02-18T14:31:27;63.13;53.18;75.98;;
74260;Laerm;62630;55.874;37.516;2023-02-18T14:34:17;66.61;52.47;81.01;;
74260;Laerm;62630;55.874;37.516;2023-02-18T14:50:22;64.63;52.62;79.58;;
74260;Laerm;62630;55.874;37.516;2023-02-18T14:52:59;63.23;53.44;72.03;;
74260;Laerm;62630;55.874;37.516;2023-02-18T14:55:36;62.75;53.13;70.69;;
74260;Laerm;62630;55.874;37.516;2023-02-18T14:58:11;65.33;55.55;79.46;;
74260;Laerm;62630;55.874;37.516;2023-02-18T15:00:42;64.51;54.47;75.51;;
74260;Laerm;62630;55.874;37.516;2023-02-18T15:03:12;62.74;54.26;74.00;;
74260;Laerm;62630;55.874;37.516;2023-02-18T15:05:38;67.42;52.69;88.47;;
74260;Laerm;62630;55.874;37.516;2023-02-18T15:08:06;62.85;53.47;73.12;;
74260;Laerm;62630;55.874;37.516;2023-02-18T15:13:07;63.32;52.44;85.06;;
74260;Laerm;62630;55.874;37.516;2023-02-18T15:15:34;61.80;51.25;70.98;;
74260;Laerm;62630;55.874;37.516;2023-02-18T15:18:03;63.71;52.47;71.12;;
74260;Laerm;62630;55.874;37.516;2023-02-18T15:20:32;63.16;52.68;71.81;;
74260;Laerm;62630;55.874;37.516;2023-02-18T15:22:59;70.88;53.52;89.53;;
74260;Laerm;62630;55.874;37.516;2023-02-18T15:25:24;66.83;52.11;78.22;;
74260;Laerm;62630;55.874;37.516;2023-02-18T15:27:51;61.29;50.77;70.56;;
74260;Laerm;62630;55.874;37.516;2023-02-18T15:30:39;62.23;54.21;78.01;;
74260;Laerm;62630;55.874;37.516;2023-02-18T15:33:11;68.50;57.04;88.45;;
74260;Laerm;62630;55.874;37.516;2023-02-18T15:35:40;71.43;54.38;99.81;;
74260;Laerm;62630;55.874;37.516;2023-02-18T15:38:14;60.87;52.94;71.38;;
74260;Laerm;62630;55.874;37.516;2023-02-18T15:40:40;63.75;52.88;76.04;;
74260;Laerm;62630;55.874;37.516;2023-02-18T15:43:06;62.79;54.79;70.75;;
74260;Laerm;62630;55.874;37.516;2023-02-18T15:45:39;61.83;52.22;70.97;;
74260;Laerm;62630;55.874;37.516;2023-02-18T15:48:06;65.23;51.90;76.80;;
74260;Laerm;62630;55.874;37.516;2023-02-18T15:50:52;63.97;53.07;78.44;;
74260;Laerm;62630;55.874;37.516;2023-02-18T15:53:22;60.79;51.40;70.75;;
74260;Laerm;62630;55.874;37.516;2023-02-18T15:55:51;63.70;55.51;74.50;;
74260;Laerm;62630;55.874;37.516;2023-02-18T15:58:29;62.32;52.22;71.73;;
74260;Laerm;62630;55.874;37.516;2023-02-18T16:00:56;69.66;53.16;87.91;;
74260;Laerm;62630;55.874;37.516;2023-02-18T16:06:10;64.23;53.24;75.09;;
74260;Laerm;62630;55.874;37.516;2023-02-18T16:08:36;64.46;54.11;72.81;;
74260;Laerm;62630;55.874;37.516;2023-02-18T16:11:06;63.96;54.82;74.06;;
74260;Laerm;62630;55.874;37.516;2023-02-18T16:13:36;60.90;50.27;72.29;;
74260;Laerm;62630;55.874;37.516;2023-02-18T16:16:22;63.75;53.93;72.65;;
74260;Laerm;62630;55.874;37.516;2023-02-18T16:18:49;64.24;52.52;83.22;;
74260;Laerm;62630;55.874;37.516;2023-02-18T16:23:55;63.91;55.10;71.21;;
74260;Laerm;62630;55.874;37.516;2023-02-18T16:26:30;62.98;54.89;73.37;;
74260;Laerm;62630;55.874;37.516;2023-02-18T16:29:03;62.35;55.14;70.14;;
74260;Laerm;62630;55.874;37.516;2023-02-18T16:31:29;62.24;53.58;73.04;;
74260;Laerm;62630;55.874;37.516;2023-02-18T16:34:01;62.18;51.03;76.64;;
74260;Laerm;62630;55.874;37.516;2023-02-18T16:36:26;62.99;54.07;72.95;;
74260;Laerm;62630;55.874;37.516;2023-02-18T16:38:52;65.20;52.03;76.39;;
74260;Laerm;62630;55.874;37.516;2023-02-18T16:41:26;65.21;51.67;76.70;;
74260;Laerm;62630;55.874;37.516;2023-02-18T16:44:14;61.18;50.98;71.42;;
74260;Laerm;62630;55.874;37.516;2023-02-18T16:46:41;65.96;53.66;75.72;;
74260;Laerm;62630;55.874;37.516;2023-02-18T16:49:08;59.83;48.85;72.29;;
74260;Laerm;62630;55.874;37.516;2023-02-18T16:51:37;62.48;52.52;72.55;;
74260;Laerm;62630;55.874;37.516;2023-02-18T16:54:03;62.15;52.30;69.98;;
74260;Laerm;62630;55.874;37.516;2023-02-18T16:56:31;61.20;53.59;68.74;;
74260;Laerm;62630;55.874;37.516;2023-02-18T16:58:57;62.90;54.07;71.81;;
74260;Laerm;62630;55.874;37.516;2023-02-18T17:01:29;63.85;51.99;83.67;;
74260;Laerm;62630;55.874;37.516;2023-02-18T17:03:58;65.08;52.42;80.05;;
74260;Laerm;62630;55.874;37.516;2023-02-18T17:06:27;61.43;50.11;73.95;;
74260;Laerm;62630;55.874;37.516;2023-02-18T17:08:58;61.98;48.53;72.49;;
74260;Laerm;62630;55.874;37.516;2023-02-18T17:11:27;62.74;52.08;72.63;;
74260;Laerm;62630;55.874;37.516;2023-02-18T17:13:54;62.52;51.55;73.55;;
74260;Laerm;62630;55.874;37.516;2023-02-18T17:16:22;63.20;52.43;76.16;;
74260;Laerm;62630;55.874;37.516;2023-02-18T17:18:49;64.47;54.10;76.62;;